createdAt,value
2022-10-27T03:37:27.235Z,98350.67
2022-10-27T03:42:28.996Z,98350.67
2022-10-27T03:47:30.753Z,98365.31
2022-10-27T03:52:34.126Z,98360.69
2022-10-27T03:57:35.903Z,98360.69
2022-10-27T04:02:37.665Z,98366.16
2022-10-27T04:07:47.589Z,98366.16
2022-10-27T04:12:50.597Z,98369.23
2022-10-27T04:17:53.293Z,98369.23
2022-10-27T04:22:55.920Z,98370.03
2022-10-27T04:28:00.395Z,98370.03
2022-10-27T04:33:02.625Z,98385.88
2022-10-27T04:38:04.406Z,98385.88
2022-10-27T04:43:06.146Z,98391.61
2022-10-27T04:48:07.905Z,98391.61
2022-10-27T04:53:09.586Z,98395.06
2022-10-27T04:58:11.432Z,98395.06
2022-10-27T05:03:13.707Z,98408.45
2022-10-27T05:08:15.470Z,98409.72
2022-10-27T05:13:17.256Z,98409.72
2022-10-27T05:18:19.073Z,98415.67
2022-10-27T05:23:21.078Z,98415.67
2022-10-27T05:28:23.360Z,98424.64
2022-10-27T05:33:25.166Z,98424.64
2022-10-27T05:38:26.979Z,98427.28
2022-10-27T05:48:34.655Z,98432.11
2022-10-27T05:53:36.463Z,98432.11
2022-10-27T05:58:38.176Z,98432.41
2022-10-27T06:03:39.954Z,98432.41
2022-10-27T06:08:41.700Z,98439.63
2022-10-27T06:13:43.435Z,98439.63
2022-10-27T06:18:45.220Z,98464.84
2022-10-27T06:23:47.475Z,98464.84
2022-10-27T06:28:49.091Z,98471.67
2022-10-27T06:33:50.797Z,98488.66
2022-10-27T06:38:52.603Z,98488.66
2022-10-27T06:43:54.305Z,98491
2022-10-27T06:48:56.280Z,98491
2022-10-27T06:53:58.244Z,98497.97
2022-10-27T06:58:59.996Z,98497.97
2022-10-27T07:04:01.676Z,98513.04
2022-10-27T07:09:10.344Z,98513.04
2022-10-27T07:14:12.071Z,98522.03
2022-10-27T07:19:14.098Z,98522.03
2022-10-27T07:24:15.845Z,98531.88
2022-10-27T07:29:17.580Z,98531.88
2022-10-27T07:34:19.340Z,98530.76
2022-10-27T07:39:21.634Z,98530.76
2022-10-27T07:44:23.779Z,98546.47
2022-10-27T07:49:25.536Z,98546.47
2022-10-27T07:54:27.391Z,98553
2022-10-27T07:59:29.164Z,98562.69
2022-10-27T08:04:30.913Z,98562.69
2022-10-27T08:09:32.669Z,98574.92
2022-10-27T08:14:34.395Z,98574.92
2022-10-27T08:19:36.219Z,98575.02
2022-10-27T08:24:37.893Z,98575.02
2022-10-27T08:29:39.866Z,98581.05
2022-10-27T08:34:41.779Z,98581.05
2022-10-27T08:39:43.604Z,98581.25
2022-10-27T08:44:49.756Z,98581.25
2022-10-27T08:49:55.063Z,98588.41
2022-10-27T08:54:59.925Z,98588.41
2022-10-27T09:00:02.174Z,98585.91
2022-10-27T09:10:18.398Z,98592.31
2022-10-27T09:15:26.450Z,98587.25
2022-10-27T09:20:31.347Z,98587.25
2022-10-27T09:25:34.562Z,98591.81
2022-10-27T09:30:37.887Z,98591.81
2022-10-27T09:35:39.629Z,98590.02
2022-10-27T09:40:41.576Z,98590.02
2022-10-27T09:45:43.441Z,98591.19
2022-10-27T09:50:48.040Z,98591.19
2022-10-27T09:55:51.690Z,98597.66
2022-10-27T10:00:56.001Z,98597.66
2022-10-27T10:05:58.601Z,98596.5
2022-10-27T10:11:01.580Z,98596.5
2022-10-27T10:16:06.078Z,98597.92
2022-10-27T10:21:08.921Z,98597.92
2022-10-27T10:26:15.665Z,98598.94
2022-10-27T10:31:21.850Z,98598.94
2022-10-27T10:36:26.108Z,98607.61
2022-10-27T10:41:28.304Z,98596.22
2022-10-27T10:46:30.023Z,98596.22
2022-10-27T10:51:33.154Z,98591.99
2022-10-27T10:56:36.320Z,98591.99
2022-10-27T11:01:43.618Z,98591.27
2022-10-27T11:06:57.305Z,98591.27
2022-10-27T11:12:00.115Z,98594.27
2022-10-27T11:17:02.845Z,98594.27
2022-10-27T11:22:07.301Z,98595.61
2022-10-27T11:27:13.033Z,98595.61
2022-10-27T11:32:16.817Z,98591.52
2022-10-27T11:37:20.952Z,98591.52
2022-10-27T11:42:26.541Z,98589.98
2022-10-27T11:47:32.423Z,98589.98
2022-10-27T11:52:37.200Z,98574.91
2022-10-27T11:57:42.385Z,98568.74
2022-10-27T12:07:58.252Z,98555.95
2022-10-27T12:13:01.833Z,98555.95
2022-10-27T12:18:10.713Z,98551.47
2022-10-27T12:23:16.063Z,98551.47
2022-10-27T12:28:18.743Z,98546.53
2022-10-27T12:33:24.148Z,98546.53
2022-10-27T12:38:29.979Z,98543.28
2022-10-27T12:43:39.147Z,98543.28
2022-10-27T12:53:49.248Z,98554.32
2022-10-27T12:58:54.921Z,98551.18
2022-10-27T13:14:18.289Z,98566.02
2022-10-27T13:19:24.651Z,98566.02
2022-10-27T13:24:30.426Z,98565.92
2022-10-27T13:29:37.244Z,98565.92
2022-10-27T13:34:38.978Z,98565.91
2022-10-27T13:39:44.507Z,98565.91
2022-10-27T13:44:46.161Z,98568.83
2022-10-27T13:49:51.894Z,98568.83
2022-10-27T13:54:56.185Z,98573.81
2022-10-27T14:00:01.206Z,98573.81
2022-10-27T14:05:05.456Z,98573.13
2022-10-27T14:10:12.682Z,98574.94
2022-10-27T14:15:18.050Z,98574.94
2022-10-27T14:20:22.254Z,98575.52
2022-10-27T14:25:26.256Z,98575.52
2022-10-27T14:30:28.131Z,98581.77
2022-10-27T14:35:30.225Z,98581.77
2022-10-27T14:40:35.724Z,98578.36
2022-10-27T14:45:40.468Z,98578.36
2022-10-27T14:50:42.366Z,98576.16
2022-10-27T14:55:44.472Z,98576.16
2022-10-27T15:00:50.367Z,98587.04
2022-10-27T15:05:52.113Z,98587.04
2022-10-27T15:10:57.438Z,98588.23
2022-10-27T15:15:59.684Z,98588.23
2022-10-27T15:21:02.530Z,98583.46
2022-10-27T15:26:04.934Z,98584.22
2022-10-27T15:31:06.875Z,98584.22
2022-10-27T15:36:11.528Z,98588.74
2022-10-27T15:41:21.883Z,98588.74
2022-10-27T15:46:27.850Z,98591.47
2022-10-27T15:56:37.793Z,98594.4
2022-10-27T16:01:40.627Z,98594.4
2022-10-27T16:06:42.704Z,98594.86
2022-10-27T16:11:44.618Z,98594.86
2022-10-27T16:16:46.438Z,98606.45
2022-10-27T16:21:48.205Z,98606.45
2022-10-27T16:26:50.282Z,98607.42
2022-10-27T16:31:52.419Z,98607.42
2022-10-27T16:36:54.754Z,98606.13
2022-10-27T16:41:57.296Z,98614.07
2022-10-27T16:46:59.429Z,98614.07
2022-10-27T16:52:01.778Z,98614.67
2022-10-27T16:57:04.758Z,98614.67
2022-10-27T17:02:07.265Z,98616.75
2022-10-27T17:07:09.802Z,98616.75
2022-10-27T17:12:14.267Z,98626.83
2022-10-27T17:17:18.293Z,98626.83
2022-10-27T17:22:21.206Z,98630.98
2022-10-27T17:27:24.157Z,98630.98
2022-10-27T17:32:26.643Z,98635.73
2022-10-27T17:37:29.099Z,98635.73
2022-10-27T17:42:32.280Z,98644.28
2022-10-27T17:47:35.052Z,98644.28
2022-10-27T17:52:37.994Z,98642.94
2022-10-27T17:57:40.208Z,98643.42
2022-10-27T18:02:42.781Z,98643.42
2022-10-27T18:07:46.257Z,98646.31
2022-10-27T18:12:52.265Z,98646.31
2022-10-27T18:17:56.168Z,98647.56
2022-10-27T18:22:59.117Z,98647.56
2022-10-27T18:28:02.102Z,98643.81
2022-10-27T18:33:04.773Z,98643.81
2022-10-27T18:38:08.531Z,98643.61
2022-10-27T18:43:12.165Z,98643.61
2022-10-27T18:48:15.169Z,98644.86
2022-10-27T18:53:18.095Z,98644.86
2022-10-27T18:58:22.339Z,98651.38
2022-10-27T19:03:24.957Z,98651.38
2022-10-27T19:08:30.877Z,98647.49
2022-10-27T19:13:34.449Z,98647.49
2022-10-27T19:18:37.745Z,98648.2
2022-10-27T19:23:40.425Z,98650.7
2022-10-27T19:28:44.683Z,98650.7
2022-10-27T19:33:48.029Z,98659.86
2022-10-27T19:38:53.220Z,98659.86
2022-10-27T19:43:56.318Z,98671.59
2022-10-27T19:49:00.408Z,98671.59
2022-10-27T19:54:04.546Z,98675.22
2022-10-27T19:59:07.484Z,98675.22
2022-10-27T20:04:12.547Z,98674.02
2022-10-27T20:09:16.803Z,98674.02
2022-10-27T20:14:21.608Z,98674.52
2022-10-27T20:19:30.108Z,98674.52
2022-10-27T20:24:36.658Z,98669.58
2022-10-27T20:29:39.464Z,98666.02
2022-10-27T20:34:41.887Z,98666.02
2022-10-27T20:39:44.328Z,98671.99
2022-10-27T20:44:46.834Z,98671.99
2022-10-27T20:49:49.484Z,98671.99
2022-10-27T20:54:51.291Z,98671.99
2022-10-27T20:59:52.931Z,98671.99
2022-10-27T21:04:54.855Z,98671.99
2022-10-27T21:09:57.343Z,98671.99
2022-10-27T21:14:59.019Z,98671.99
2022-10-27T21:20:00.825Z,98671.99
2022-10-27T21:25:03.373Z,98671.99
2022-10-27T21:30:05.779Z,98671.99
2022-10-27T21:35:08.061Z,98671.99
